sensor_id;sensor_type;location;lat;lon;timestamp;temperature;humidity
7576;DHT22;3829;50.798;4.358;2022-08-19T00:01:17;19.40;99.90
7576;DHT22;3829;50.798;4.358;2022-08-19T00:03:43;19.40;99.90
7576;DHT22;3829;50.798;4.358;2022-08-19T00:06:09;19.30;99.90
7576;DHT22;3829;50.798;4.358;2022-08-19T00:08:35;19.30;99.90
7576;DHT22;3829;50.798;4.358;2022-08-19T00:11:00;19.30;99.90
7576;DHT22;3829;50.798;4.358;2022-08-19T00:13:26;19.30;99.90
7576;DHT22;3829;50.798;4.358;2022-08-19T00:15:57;19.30;99.90
7576;DHT22;3829;50.798;4.358;2022-08-19T00:18:24;19.40;99.90
7576;DHT22;3829;50.798;4.358;2022-08-19T00:20:50;19.40;99.90
7576;DHT22;3829;50.798;4.358;2022-08-19T00:23:16;19.60;99.90
7576;DHT22;3829;50.798;4.358;2022-08-19T00:25:42;19.60;99.90
7576;DHT22;3829;50.798;4.358;2022-08-19T00:28:07;19.70;99.90
7576;DHT22;3829;50.798;4.358;2022-08-19T00:30:33;19.80;99.90
7576;DHT22;3829;50.798;4.358;2022-08-19T00:32:59;19.80;99.90
7576;DHT22;3829;50.798;4.358;2022-08-19T00:35:25;19.80;99.90
7576;DHT22;3829;50.798;4.358;2022-08-19T00:37:53;19.70;99.90
7576;DHT22;3829;50.798;4.358;2022-08-19T00:40:19;19.70;99.90
7576;DHT22;3829;50.798;4.358;2022-08-19T00:42:45;19.70;99.90
7576;DHT22;3829;50.798;4.358;2022-08-19T00:45:15;19.70;99.90
7576;DHT22;3829;50.798;4.358;2022-08-19T00:47:43;19.70;99.90
7576;DHT22;3829;50.798;4.358;2022-08-19T00:50:10;19.70;99.90
7576;DHT22;3829;50.798;4.358;2022-08-19T00:52:39;19.70;99.90
7576;DHT22;3829;50.798;4.358;2022-08-19T00:55:08;19.80;99.90
7576;DHT22;3829;50.798;4.358;2022-08-19T00:57:39;19.90;99.90
7576;DHT22;3829;50.798;4.358;2022-08-19T01:00:12;19.90;99.90
7576;DHT22;3829;50.798;4.358;2022-08-19T01:02:40;19.80;99.90
7576;DHT22;3829;50.798;4.358;2022-08-19T01:05:09;19.80;99.90
7576;DHT22;3829;50.798;4.358;2022-08-19T01:07:37;19.70;99.90
7576;DHT22;3829;50.798;4.358;2022-08-19T01:10:06;19.70;99.90
7576;DHT22;3829;50.798;4.358;2022-08-19T01:12:32;19.60;99.90
7576;DHT22;3829;50.798;4.358;2022-08-19T01:14:58;19.40;99.90
7576;DHT22;3829;50.798;4.358;2022-08-19T01:17:24;19.20;99.90
7576;DHT22;3829;50.798;4.358;2022-08-19T01:19:50;19.20;99.90
7576;DHT22;3829;50.798;4.358;2022-08-19T01:24:48;18.90;99.90
7576;DHT22;3829;50.798;4.358;2022-08-19T01:27:14;18.90;99.90
7576;DHT22;3829;50.798;4.358;2022-08-19T01:29:41;18.80;99.90
7576;DHT22;3829;50.798;4.358;2022-08-19T01:32:09;18.80;99.90
7576;DHT22;3829;50.798;4.358;2022-08-19T01:34:37;18.70;99.90
7576;DHT22;3829;50.798;4.358;2022-08-19T01:37:07;18.70;99.90
7576;DHT22;3829;50.798;4.358;2022-08-19T01:39:34;18.70;99.90
7576;DHT22;3829;50.798;4.358;2022-08-19T01:41:59;18.70;99.90
7576;DHT22;3829;50.798;4.358;2022-08-19T01:44:28;18.60;99.90
7576;DHT22;3829;50.798;4.358;2022-08-19T01:46:54;18.70;99.90
7576;DHT22;3829;50.798;4.358;2022-08-19T01:49:22;18.60;99.90
7576;DHT22;3829;50.798;4.358;2022-08-19T01:51:49;18.70;99.90
7576;DHT22;3829;50.798;4.358;2022-08-19T01:54:17;18.70;99.90
7576;DHT22;3829;50.798;4.358;2022-08-19T01:56:43;18.60;99.90
7576;DHT22;3829;50.798;4.358;2022-08-19T01:59:13;18.70;99.90
7576;DHT22;3829;50.798;4.358;2022-08-19T02:01:39;18.60;99.90
7576;DHT22;3829;50.798;4.358;2022-08-19T02:04:05;18.60;99.90
7576;DHT22;3829;50.798;4.358;2022-08-19T02:06:31;18.50;99.90
7576;DHT22;3829;50.798;4.358;2022-08-19T02:08:57;18.50;99.90
7576;DHT22;3829;50.798;4.358;2022-08-19T02:11:31;18.50;99.90
7576;DHT22;3829;50.798;4.358;2022-08-19T02:13:57;18.30;99.90
7576;DHT22;3829;50.798;4.358;2022-08-19T02:16:23;18.40;99.90
7576;DHT22;3829;50.798;4.358;2022-08-19T02:18:49;18.30;99.90
7576;DHT22;3829;50.798;4.358;2022-08-19T02:21:17;18.30;99.90
7576;DHT22;3829;50.798;4.358;2022-08-19T02:23:44;18.20;99.90
7576;DHT22;3829;50.798;4.358;2022-08-19T02:26:10;18.10;99.90
7576;DHT22;3829;50.798;4.358;2022-08-19T02:28:35;18.00;99.90
7576;DHT22;3829;50.798;4.358;2022-08-19T02:31:02;17.90;99.90
7576;DHT22;3829;50.798;4.358;2022-08-19T02:33:28;17.90;99.90
7576;DHT22;3829;50.798;4.358;2022-08-19T02:35:54;17.80;99.90
7576;DHT22;3829;50.798;4.358;2022-08-19T02:38:20;17.90;99.90
7576;DHT22;3829;50.798;4.358;2022-08-19T02:40:55;17.80;99.90
7576;DHT22;3829;50.798;4.358;2022-08-19T02:43:21;17.80;99.90
7576;DHT22;3829;50.798;4.358;2022-08-19T02:45:48;17.70;99.90
7576;DHT22;3829;50.798;4.358;2022-08-19T02:48:19;17.70;99.90
7576;DHT22;3829;50.798;4.358;2022-08-19T02:50:46;17.70;99.90
7576;DHT22;3829;50.798;4.358;2022-08-19T02:53:12;17.70;99.90
7576;DHT22;3829;50.798;4.358;2022-08-19T02:55:47;17.70;99.90
7576;DHT22;3829;50.798;4.358;2022-08-19T02:58:14;17.60;99.90
7576;DHT22;3829;50.798;4.358;2022-08-19T03:00:49;17.60;99.90
7576;DHT22;3829;50.798;4.358;2022-08-19T03:03:15;17.60;99.90
7576;DHT22;3829;50.798;4.358;2022-08-19T03:05:41;17.50;99.90
7576;DHT22;3829;50.798;4.358;2022-08-19T03:08:08;17.40;99.90
7576;DHT22;3829;50.798;4.358;2022-08-19T03:10:47;17.40;99.90
7576;DHT22;3829;50.798;4.358;2022-08-19T03:13:15;17.40;99.90
7576;DHT22;3829;50.798;4.358;2022-08-19T03:15:45;17.40;99.90
7576;DHT22;3829;50.798;4.358;2022-08-19T03:18:13;17.50;99.90
7576;DHT22;3829;50.798;4.358;2022-08-19T03:20:56;17.50;99.90
7576;DHT22;3829;50.798;4.358;2022-08-19T03:23:23;17.40;99.90
7576;DHT22;3829;50.798;4.358;2022-08-19T03:25:50;17.40;99.90
7576;DHT22;3829;50.798;4.358;2022-08-19T03:28:17;17.30;99.90
7576;DHT22;3829;50.798;4.358;2022-08-19T03:30:58;17.30;99.90
7576;DHT22;3829;50.798;4.358;2022-08-19T03:33:26;17.40;99.90
7576;DHT22;3829;50.798;4.358;2022-08-19T03:36:04;17.40;99.90
7576;DHT22;3829;50.798;4.358;2022-08-19T03:38:30;17.30;99.90
7576;DHT22;3829;50.798;4.358;2022-08-19T03:40:57;17.40;99.90
7576;DHT22;3829;50.798;4.358;2022-08-19T03:43:23;17.30;99.90
7576;DHT22;3829;50.798;4.358;2022-08-19T03:45:48;17.20;99.90
7576;DHT22;3829;50.798;4.358;2022-08-19T03:48:15;17.30;99.90
7576;DHT22;3829;50.798;4.358;2022-08-19T03:50:42;17.20;99.90
7576;DHT22;3829;50.798;4.358;2022-08-19T03:53:08;17.20;99.90
7576;DHT22;3829;50.798;4.358;2022-08-19T03:55:39;17.40;99.90
7576;DHT22;3829;50.798;4.358;2022-08-19T03:58:05;17.20;99.90
7576;DHT22;3829;50.798;4.358;2022-08-19T04:00:31;17.20;99.90
7576;DHT22;3829;50.798;4.358;2022-08-19T04:02:58;17.10;99.90
7576;DHT22;3829;50.798;4.358;2022-08-19T04:05:27;17.10;99.90
7576;DHT22;3829;50.798;4.358;2022-08-19T04:07:53;17.10;99.90
7576;DHT22;3829;50.798;4.358;2022-08-19T04:10:22;17.20;99.90
7576;DHT22;3829;50.798;4.358;2022-08-19T04:12:49;17.20;99.90
7576;DHT22;3829;50.798;4.358;2022-08-19T04:15:14;17.20;99.90
7576;DHT22;3829;50.798;4.358;2022-08-19T04:17:40;17.20;99.90
7576;DHT22;3829;50.798;4.358;2022-08-19T04:20:06;17.20;99.90
7576;DHT22;3829;50.798;4.358;2022-08-19T04:22:32;17.10;99.90
7576;DHT22;3829;50.798;4.358;2022-08-19T04:24:58;17.20;99.90
7576;DHT22;3829;50.798;4.358;2022-08-19T04:27:23;17.20;99.90
7576;DHT22;3829;50.798;4.358;2022-08-19T04:29:49;17.20;99.90
7576;DHT22;3829;50.798;4.358;2022-08-19T04:32:14;17.20;99.90
7576;DHT22;3829;50.798;4.358;2022-08-19T04:34:40;17.20;99.90
7576;DHT22;3829;50.798;4.358;2022-08-19T04:37:08;17.20;99.90
7576;DHT22;3829;50.798;4.358;2022-08-19T04:39:37;17.30;99.90
7576;DHT22;3829;50.798;4.358;2022-08-19T04:42:21;17.10;99.90
7576;DHT22;3829;50.798;4.358;2022-08-19T04:45:07;17.00;99.90
7576;DHT22;3829;50.798;4.358;2022-08-19T04:47:38;16.90;99.90
7576;DHT22;3829;50.798;4.358;2022-08-19T04:50:05;16.90;99.90
7576;DHT22;3829;50.798;4.358;2022-08-19T04:52:31;17.00;99.90
7576;DHT22;3829;50.798;4.358;2022-08-19T04:54:57;17.00;99.90
7576;DHT22;3829;50.798;4.358;2022-08-19T04:57:23;17.20;99.90
7576;DHT22;3829;50.798;4.358;2022-08-19T04:59:53;17.20;99.90
7576;DHT22;3829;50.798;4.358;2022-08-19T05:02:18;17.20;99.90
7576;DHT22;3829;50.798;4.358;2022-08-19T05:04:44;17.10;99.90
7576;DHT22;3829;50.798;4.358;2022-08-19T05:07:09;17.10;99.90
7576;DHT22;3829;50.798;4.358;2022-08-19T05:09:35;17.00;99.90
7576;DHT22;3829;50.798;4.358;2022-08-19T05:12:01;17.10;99.90
7576;DHT22;3829;50.798;4.358;2022-08-19T05:14:27;17.10;99.90
7576;DHT22;3829;50.798;4.358;2022-08-19T05:16:53;17.20;99.90
7576;DHT22;3829;50.798;4.358;2022-08-19T05:19:18;17.10;99.90
7576;DHT22;3829;50.798;4.358;2022-08-19T05:22:03;17.20;99.90
7576;DHT22;3829;50.798;4.358;2022-08-19T05:24:47;17.10;99.90
7576;DHT22;3829;50.798;4.358;2022-08-19T05:27:12;17.20;99.90
7576;DHT22;3829;50.798;4.358;2022-08-19T05:29:38;17.30;99.90
7576;DHT22;3829;50.798;4.358;2022-08-19T05:32:05;17.30;99.90
7576;DHT22;3829;50.798;4.358;2022-08-19T05:34:34;17.40;99.90
7576;DHT22;3829;50.798;4.358;2022-08-19T05:37:02;17.50;99.90
7576;DHT22;3829;50.798;4.358;2022-08-19T05:39:29;17.50;99.90
7576;DHT22;3829;50.798;4.358;2022-08-19T05:41:58;17.50;99.90
7576;DHT22;3829;50.798;4.358;2022-08-19T05:44:27;17.50;99.90
7576;DHT22;3829;50.798;4.358;2022-08-19T05:46:57;17.80;99.90
7576;DHT22;3829;50.798;4.358;2022-08-19T05:49:23;17.90;99.90
7576;DHT22;3829;50.798;4.358;2022-08-19T05:51:51;18.10;99.90
7576;DHT22;3829;50.798;4.358;2022-08-19T05:54:18;18.20;99.90
7576;DHT22;3829;50.798;4.358;2022-08-19T05:56:45;18.50;99.90
7576;DHT22;3829;50.798;4.358;2022-08-19T05:59:13;18.70;99.90
7576;DHT22;3829;50.798;4.358;2022-08-19T06:01:41;18.90;99.90
7576;DHT22;3829;50.798;4.358;2022-08-19T06:04:07;18.90;99.90
7576;DHT22;3829;50.798;4.358;2022-08-19T06:06:33;18.90;99.90
7576;DHT22;3829;50.798;4.358;2022-08-19T06:09:01;18.80;99.90
7576;DHT22;3829;50.798;4.358;2022-08-19T06:11:43;19.00;99.90
7576;DHT22;3829;50.798;4.358;2022-08-19T06:14:15;19.10;99.90
7576;DHT22;3829;50.798;4.358;2022-08-19T06:16:42;19.10;99.90
7576;DHT22;3829;50.798;4.358;2022-08-19T06:19:13;19.20;99.90
7576;DHT22;3829;50.798;4.358;2022-08-19T06:21:41;19.10;99.90
7576;DHT22;3829;50.798;4.358;2022-08-19T06:24:09;19.30;99.90
7576;DHT22;3829;50.798;4.358;2022-08-19T06:26:38;19.40;99.90
7576;DHT22;3829;50.798;4.358;2022-08-19T06:29:06;19.60;99.90
7576;DHT22;3829;50.798;4.358;2022-08-19T06:31:33;19.60;99.90
7576;DHT22;3829;50.798;4.358;2022-08-19T06:34:04;19.60;99.90
7576;DHT22;3829;50.798;4.358;2022-08-19T06:36:36;19.80;99.90
7576;DHT22;3829;50.798;4.358;2022-08-19T06:39:17;19.90;99.90
7576;DHT22;3829;50.798;4.358;2022-08-19T06:41:46;20.00;99.90
7576;DHT22;3829;50.798;4.358;2022-08-19T06:44:13;20.00;99.90
7576;DHT22;3829;50.798;4.358;2022-08-19T06:46:40;20.30;99.90
7576;DHT22;3829;50.798;4.358;2022-08-19T06:49:06;20.30;99.90
7576;DHT22;3829;50.798;4.358;2022-08-19T06:51:36;20.30;99.90
7576;DHT22;3829;50.798;4.358;2022-08-19T06:54:02;20.40;99.90
7576;DHT22;3829;50.798;4.358;2022-08-19T06:56:29;20.50;99.90
7576;DHT22;3829;50.798;4.358;2022-08-19T06:59:08;20.40;99.90
7576;DHT22;3829;50.798;4.358;2022-08-19T07:01:39;20.50;99.90
7576;DHT22;3829;50.798;4.358;2022-08-19T07:04:07;20.70;99.90
7576;DHT22;3829;50.798;4.358;2022-08-19T07:06:34;20.70;99.90
7576;DHT22;3829;50.798;4.358;2022-08-19T07:08:59;20.60;99.90
7576;DHT22;3829;50.798;4.358;2022-08-19T07:11:25;20.70;99.90
7576;DHT22;3829;50.798;4.358;2022-08-19T07:13:51;20.60;99.90
7576;DHT22;3829;50.798;4.358;2022-08-19T07:16:19;20.80;99.90
7576;DHT22;3829;50.798;4.358;2022-08-19T07:18:49;20.60;99.90
7576;DHT22;3829;50.798;4.358;2022-08-19T07:21:20;20.60;99.90
7576;DHT22;3829;50.798;4.358;2022-08-19T07:23:47;20.70;99.90
7576;DHT22;3829;50.798;4.358;2022-08-19T07:26:22;20.70;99.90
7576;DHT22;3829;50.798;4.358;2022-08-19T07:28:49;20.80;99.90
7576;DHT22;3829;50.798;4.358;2022-08-19T07:31:19;20.80;99.90
7576;DHT22;3829;50.798;4.358;2022-08-19T07:33:47;20.90;99.90
7576;DHT22;3829;50.798;4.358;2022-08-19T07:36:15;21.00;99.90
7576;DHT22;3829;50.798;4.358;2022-08-19T07:38:44;21.20;99.90
7576;DHT22;3829;50.798;4.358;2022-08-19T07:41:16;21.00;99.90
7576;DHT22;3829;50.798;4.358;2022-08-19T07:43:42;21.20;99.90
7576;DHT22;3829;50.798;4.358;2022-08-19T07:46:09;21.40;99.90
7576;DHT22;3829;50.798;4.358;2022-08-19T07:48:35;21.50;99.90
7576;DHT22;3829;50.798;4.358;2022-08-19T07:51:04;21.60;99.90
7576;DHT22;3829;50.798;4.358;2022-08-19T07:53:31;21.70;99.90
7576;DHT22;3829;50.798;4.358;2022-08-19T07:55:59;21.80;99.90
7576;DHT22;3829;50.798;4.358;2022-08-19T07:58:29;22.10;99.90
7576;DHT22;3829;50.798;4.358;2022-08-19T08:00:55;22.50;99.90
7576;DHT22;3829;50.798;4.358;2022-08-19T08:03:22;22.50;99.90
7576;DHT22;3829;50.798;4.358;2022-08-19T08:06:12;22.50;99.90
7576;DHT22;3829;50.798;4.358;2022-08-19T08:08:57;22.50;99.90
7576;DHT22;3829;50.798;4.358;2022-08-19T08:11:50;22.60;99.90
7576;DHT22;3829;50.798;4.358;2022-08-19T08:14:24;22.60;99.90
7576;DHT22;3829;50.798;4.358;2022-08-19T08:16:50;22.70;99.90
7576;DHT22;3829;50.798;4.358;2022-08-19T08:19:19;22.70;99.90
7576;DHT22;3829;50.798;4.358;2022-08-19T08:21:46;22.70;99.90
7576;DHT22;3829;50.798;4.358;2022-08-19T08:24:12;22.80;99.90
7576;DHT22;3829;50.798;4.358;2022-08-19T08:26:39;23.00;99.90
7576;DHT22;3829;50.798;4.358;2022-08-19T08:29:05;22.80;99.90
7576;DHT22;3829;50.798;4.358;2022-08-19T08:31:32;23.00;99.90
7576;DHT22;3829;50.798;4.358;2022-08-19T08:33:59;23.20;99.90
7576;DHT22;3829;50.798;4.358;2022-08-19T08:36:24;23.20;99.90
7576;DHT22;3829;50.798;4.358;2022-08-19T08:38:51;23.30;99.90
7576;DHT22;3829;50.798;4.358;2022-08-19T08:41:56;23.30;99.90
7576;DHT22;3829;50.798;4.358;2022-08-19T08:44:40;23.30;99.90
7576;DHT22;3829;50.798;4.358;2022-08-19T08:47:15;23.10;99.90
7576;DHT22;3829;50.798;4.358;2022-08-19T08:50:00;23.10;99.90
7576;DHT22;3829;50.798;4.358;2022-08-19T08:52:30;23.00;99.90
7576;DHT22;3829;50.798;4.358;2022-08-19T08:55:04;23.10;99.90
7576;DHT22;3829;50.798;4.358;2022-08-19T09:00:14;23.10;99.90
7576;DHT22;3829;50.798;4.358;2022-08-19T09:02:42;23.00;99.90
7576;DHT22;3829;50.798;4.358;2022-08-19T09:05:09;22.90;99.90
7576;DHT22;3829;50.798;4.358;2022-08-19T09:10:29;22.60;99.90
7576;DHT22;3829;50.798;4.358;2022-08-19T09:13:12;22.50;99.90
7576;DHT22;3829;50.798;4.358;2022-08-19T09:15:53;22.50;99.90
7576;DHT22;3829;50.798;4.358;2022-08-19T09:18:20;22.70;99.90
7576;DHT22;3829;50.798;4.358;2022-08-19T09:20:46;22.80;99.90
7576;DHT22;3829;50.798;4.358;2022-08-19T09:23:12;23.10;99.90
7576;DHT22;3829;50.798;4.358;2022-08-19T09:25:38;23.20;99.90
7576;DHT22;3829;50.798;4.358;2022-08-19T09:28:05;23.10;99.90
7576;DHT22;3829;50.798;4.358;2022-08-19T09:30:40;23.20;99.90
7576;DHT22;3829;50.798;4.358;2022-08-19T09:33:07;23.00;99.90
7576;DHT22;3829;50.798;4.358;2022-08-19T09:35:33;23.20;99.90
7576;DHT22;3829;50.798;4.358;2022-08-19T09:38:00;23.30;99.90
7576;DHT22;3829;50.798;4.358;2022-08-19T09:40:29;23.40;99.90
7576;DHT22;3829;50.798;4.358;2022-08-19T09:42:55;23.30;99.90
7576;DHT22;3829;50.798;4.358;2022-08-19T09:45:22;23.40;99.90
7576;DHT22;3829;50.798;4.358;2022-08-19T09:47:52;23.60;99.90
7576;DHT22;3829;50.798;4.358;2022-08-19T09:50:18;23.50;99.90
7576;DHT22;3829;50.798;4.358;2022-08-19T09:52:45;23.20;99.90
7576;DHT22;3829;50.798;4.358;2022-08-19T09:55:11;23.40;99.90
7576;DHT22;3829;50.798;4.358;2022-08-19T09:57:37;23.30;99.90
7576;DHT22;3829;50.798;4.358;2022-08-19T10:00:06;23.30;99.90
7576;DHT22;3829;50.798;4.358;2022-08-19T10:02:32;23.30;99.90
7576;DHT22;3829;50.798;4.358;2022-08-19T10:04:58;23.60;99.90
7576;DHT22;3829;50.798;4.358;2022-08-19T10:07:43;23.80;99.90
7576;DHT22;3829;50.798;4.358;2022-08-19T10:10:08;23.70;99.90
7576;DHT22;3829;50.798;4.358;2022-08-19T10:12:35;24.00;99.90
7576;DHT22;3829;50.798;4.358;2022-08-19T10:15:00;23.90;99.90
7576;DHT22;3829;50.798;4.358;2022-08-19T10:17:27;23.90;99.90
7576;DHT22;3829;50.798;4.358;2022-08-19T10:19:54;24.00;99.90
7576;DHT22;3829;50.798;4.358;2022-08-19T10:22:19;24.20;99.90
7576;DHT22;3829;50.798;4.358;2022-08-19T10:24:48;24.10;99.90
7576;DHT22;3829;50.798;4.358;2022-08-19T10:27:14;23.90;99.90
7576;DHT22;3829;50.798;4.358;2022-08-19T10:29:40;23.80;99.90
7576;DHT22;3829;50.798;4.358;2022-08-19T10:32:08;24.00;99.90
7576;DHT22;3829;50.798;4.358;2022-08-19T10:34:35;24.30;99.90
7576;DHT22;3829;50.798;4.358;2022-08-19T10:37:02;24.20;99.90
7576;DHT22;3829;50.798;4.358;2022-08-19T10:39:32;24.20;99.90
7576;DHT22;3829;50.798;4.358;2022-08-19T10:41:57;24.40;99.90
7576;DHT22;3829;50.798;4.358;2022-08-19T10:44:23;24.60;99.90
7576;DHT22;3829;50.798;4.358;2022-08-19T10:46:50;24.60;99.90
7576;DHT22;3829;50.798;4.358;2022-08-19T10:49:17;24.20;99.90
7576;DHT22;3829;50.798;4.358;2022-08-19T10:51:44;24.30;99.90
7576;DHT22;3829;50.798;4.358;2022-08-19T10:54:28;24.40;99.90
7576;DHT22;3829;50.798;4.358;2022-08-19T10:57:13;24.40;99.90
7576;DHT22;3829;50.798;4.358;2022-08-19T10:59:39;24.50;99.90
7576;DHT22;3829;50.798;4.358;2022-08-19T11:02:07;24.70;99.90
7576;DHT22;3829;50.798;4.358;2022-08-19T11:04:36;24.40;99.90
7576;DHT22;3829;50.798;4.358;2022-08-19T11:07:03;24.20;99.90
7576;DHT22;3829;50.798;4.358;2022-08-19T11:09:29;23.80;99.90
7576;DHT22;3829;50.798;4.358;2022-08-19T11:11:54;23.80;99.90
7576;DHT22;3829;50.798;4.358;2022-08-19T11:14:22;23.50;99.90
7576;DHT22;3829;50.798;4.358;2022-08-19T11:16:50;23.50;99.90
7576;DHT22;3829;50.798;4.358;2022-08-19T11:19:16;23.30;99.90
7576;DHT22;3829;50.798;4.358;2022-08-19T11:21:46;23.50;99.90
7576;DHT22;3829;50.798;4.358;2022-08-19T11:24:15;23.50;99.90
7576;DHT22;3829;50.798;4.358;2022-08-19T11:26:42;23.40;99.90
7576;DHT22;3829;50.798;4.358;2022-08-19T11:29:10;23.70;99.90
7576;DHT22;3829;50.798;4.358;2022-08-19T11:31:37;23.90;99.90
7576;DHT22;3829;50.798;4.358;2022-08-19T11:34:05;24.30;99.90
7576;DHT22;3829;50.798;4.358;2022-08-19T11:36:33;24.70;99.90
7576;DHT22;3829;50.798;4.358;2022-08-19T11:38:59;24.70;99.90
7576;DHT22;3829;50.798;4.358;2022-08-19T11:41:25;24.70;99.90
7576;DHT22;3829;50.798;4.358;2022-08-19T11:43:52;24.10;99.90
7576;DHT22;3829;50.798;4.358;2022-08-19T11:46:23;24.10;99.90
7576;DHT22;3829;50.798;4.358;2022-08-19T11:48:49;24.20;99.90
7576;DHT22;3829;50.798;4.358;2022-08-19T11:51:18;24.40;99.90
7576;DHT22;3829;50.798;4.358;2022-08-19T11:53:44;24.90;99.90
7576;DHT22;3829;50.798;4.358;2022-08-19T11:56:11;25.20;99.90
7576;DHT22;3829;50.798;4.358;2022-08-19T11:58:37;25.40;99.90
7576;DHT22;3829;50.798;4.358;2022-08-19T12:01:10;25.70;99.90
7576;DHT22;3829;50.798;4.358;2022-08-19T12:03:37;25.90;99.90
7576;DHT22;3829;50.798;4.358;2022-08-19T12:06:09;26.10;99.90
7576;DHT22;3829;50.798;4.358;2022-08-19T12:08:35;26.40;99.90
7576;DHT22;3829;50.798;4.358;2022-08-19T12:11:00;26.20;99.90
7576;DHT22;3829;50.798;4.358;2022-08-19T12:13:30;26.70;99.90
7576;DHT22;3829;50.798;4.358;2022-08-19T12:15:56;27.00;99.90
7576;DHT22;3829;50.798;4.358;2022-08-19T12:18:23;27.30;99.90
7576;DHT22;3829;50.798;4.358;2022-08-19T12:20:51;27.00;99.90
7576;DHT22;3829;50.798;4.358;2022-08-19T12:23:18;27.20;99.90
7576;DHT22;3829;50.798;4.358;2022-08-19T12:25:47;27.50;99.90
7576;DHT22;3829;50.798;4.358;2022-08-19T12:28:16;27.50;99.90
7576;DHT22;3829;50.798;4.358;2022-08-19T12:30:42;27.10;99.90
7576;DHT22;3829;50.798;4.358;2022-08-19T12:33:08;26.90;99.90
7576;DHT22;3829;50.798;4.358;2022-08-19T12:35:34;27.20;99.90
7576;DHT22;3829;50.798;4.358;2022-08-19T12:37:59;27.30;99.90
7576;DHT22;3829;50.798;4.358;2022-08-19T12:40:27;27.10;99.90
7576;DHT22;3829;50.798;4.358;2022-08-19T12:42:53;27.00;99.90
7576;DHT22;3829;50.798;4.358;2022-08-19T12:45:19;27.00;99.90
7576;DHT22;3829;50.798;4.358;2022-08-19T12:47:45;26.90;99.90
7576;DHT22;3829;50.798;4.358;2022-08-19T12:50:11;26.60;99.90
7576;DHT22;3829;50.798;4.358;2022-08-19T12:52:37;26.30;99.90
7576;DHT22;3829;50.798;4.358;2022-08-19T12:55:06;25.90;99.90
7576;DHT22;3829;50.798;4.358;2022-08-19T12:57:32;25.80;99.90
7576;DHT22;3829;50.798;4.358;2022-08-19T13:00:12;26.10;99.90
7576;DHT22;3829;50.798;4.358;2022-08-19T13:02:40;26.40;99.90
7576;DHT22;3829;50.798;4.358;2022-08-19T13:05:09;26.80;99.90
7576;DHT22;3829;50.798;4.358;2022-08-19T13:07:37;27.10;99.90
7576;DHT22;3829;50.798;4.358;2022-08-19T13:10:04;27.30;99.90
7576;DHT22;3829;50.798;4.358;2022-08-19T13:12:30;27.40;99.90
7576;DHT22;3829;50.798;4.358;2022-08-19T13:14:56;27.00;99.90
7576;DHT22;3829;50.798;4.358;2022-08-19T13:17:21;27.00;99.90
7576;DHT22;3829;50.798;4.358;2022-08-19T13:19:48;26.60;99.90
7576;DHT22;3829;50.798;4.358;2022-08-19T13:22:14;26.90;99.90
7576;DHT22;3829;50.798;4.358;2022-08-19T13:24:39;26.90;99.90
7576;DHT22;3829;50.798;4.358;2022-08-19T13:27:05;27.00;99.90
7576;DHT22;3829;50.798;4.358;2022-08-19T13:29:32;27.20;99.90
7576;DHT22;3829;50.798;4.358;2022-08-19T13:32:16;27.80;99.90
7576;DHT22;3829;50.798;4.358;2022-08-19T13:35:02;28.30;99.90
7576;DHT22;3829;50.798;4.358;2022-08-19T13:37:28;28.20;99.90
7576;DHT22;3829;50.798;4.358;2022-08-19T13:40:16;28.20;99.90
7576;DHT22;3829;50.798;4.358;2022-08-19T13:42:44;28.20;99.90
7576;DHT22;3829;50.798;4.358;2022-08-19T13:45:13;27.90;99.90
7576;DHT22;3829;50.798;4.358;2022-08-19T13:47:40;27.90;99.90
7576;DHT22;3829;50.798;4.358;2022-08-19T13:50:11;28.40;99.90
7576;DHT22;3829;50.798;4.358;2022-08-19T13:52:38;28.30;99.90
7576;DHT22;3829;50.798;4.358;2022-08-19T13:55:06;27.70;99.90
7576;DHT22;3829;50.798;4.358;2022-08-19T13:57:32;27.70;99.90
7576;DHT22;3829;50.798;4.358;2022-08-19T13:59:57;26.90;99.90
7576;DHT22;3829;50.798;4.358;2022-08-19T14:02:24;26.70;99.90
7576;DHT22;3829;50.798;4.358;2022-08-19T14:04:50;26.70;99.90
7576;DHT22;3829;50.798;4.358;2022-08-19T14:07:15;26.50;99.90
7576;DHT22;3829;50.798;4.358;2022-08-19T14:09:41;26.10;99.90
7576;DHT22;3829;50.798;4.358;2022-08-19T14:12:07;25.40;99.90
7576;DHT22;3829;50.798;4.358;2022-08-19T14:14:37;25.30;99.90
7576;DHT22;3829;50.798;4.358;2022-08-19T14:17:06;25.10;99.90
7576;DHT22;3829;50.798;4.358;2022-08-19T14:19:32;25.30;99.90
7576;DHT22;3829;50.798;4.358;2022-08-19T14:21:58;25.60;99.90
7576;DHT22;3829;50.798;4.358;2022-08-19T14:24:24;25.40;99.90
7576;DHT22;3829;50.798;4.358;2022-08-19T14:26:50;25.30;99.90
7576;DHT22;3829;50.798;4.358;2022-08-19T14:29:15;24.90;99.90
7576;DHT22;3829;50.798;4.358;2022-08-19T14:31:41;24.70;99.90
7576;DHT22;3829;50.798;4.358;2022-08-19T14:34:08;24.40;99.90
7576;DHT22;3829;50.798;4.358;2022-08-19T14:36:35;24.20;99.90
7576;DHT22;3829;50.798;4.358;2022-08-19T14:39:02;23.90;99.90
7576;DHT22;3829;50.798;4.358;2022-08-19T14:41:27;23.50;99.90
7576;DHT22;3829;50.798;4.358;2022-08-19T14:43:54;23.20;99.90
7576;DHT22;3829;50.798;4.358;2022-08-19T14:46:23;23.00;99.90
7576;DHT22;3829;50.798;4.358;2022-08-19T14:48:49;23.00;99.90
7576;DHT22;3829;50.798;4.358;2022-08-19T14:51:15;22.90;99.90
7576;DHT22;3829;50.798;4.358;2022-08-19T14:53:41;23.10;99.90
7576;DHT22;3829;50.798;4.358;2022-08-19T14:56:16;24.30;99.90
7576;DHT22;3829;50.798;4.358;2022-08-19T14:58:44;25.80;99.90
7576;DHT22;3829;50.798;4.358;2022-08-19T15:01:11;27.20;99.90
7576;DHT22;3829;50.798;4.358;2022-08-19T15:03:38;27.90;99.90
7576;DHT22;3829;50.798;4.358;2022-08-19T15:06:05;28.00;99.90
7576;DHT22;3829;50.798;4.358;2022-08-19T15:08:33;28.00;99.90
7576;DHT22;3829;50.798;4.358;2022-08-19T15:11:01;27.60;99.90
7576;DHT22;3829;50.798;4.358;2022-08-19T15:13:28;26.80;99.90
7576;DHT22;3829;50.798;4.358;2022-08-19T15:15:54;26.40;99.90
7576;DHT22;3829;50.798;4.358;2022-08-19T15:18:21;26.30;99.90
7576;DHT22;3829;50.798;4.358;2022-08-19T15:20:47;26.50;99.90
7576;DHT22;3829;50.798;4.358;2022-08-19T15:23:14;26.40;99.90
7576;DHT22;3829;50.798;4.358;2022-08-19T15:25:40;26.50;99.90
7576;DHT22;3829;50.798;4.358;2022-08-19T15:28:06;26.20;99.90
7576;DHT22;3829;50.798;4.358;2022-08-19T15:30:32;25.80;99.90
7576;DHT22;3829;50.798;4.358;2022-08-19T15:32:58;26.10;99.90
7576;DHT22;3829;50.798;4.358;2022-08-19T15:35:25;26.70;99.90
7576;DHT22;3829;50.798;4.358;2022-08-19T15:37:51;27.70;99.90
7576;DHT22;3829;50.798;4.358;2022-08-19T15:40:18;28.80;99.90
7576;DHT22;3829;50.798;4.358;2022-08-19T15:42:45;30.00;99.90
7576;DHT22;3829;50.798;4.358;2022-08-19T15:45:12;30.00;99.90
7576;DHT22;3829;50.798;4.358;2022-08-19T15:47:39;29.50;99.90
7576;DHT22;3829;50.798;4.358;2022-08-19T15:50:23;29.40;99.90
7576;DHT22;3829;50.798;4.358;2022-08-19T15:52:51;28.20;99.90
7576;DHT22;3829;50.798;4.358;2022-08-19T15:55:19;28.00;99.90
7576;DHT22;3829;50.798;4.358;2022-08-19T15:57:45;28.10;99.90
7576;DHT22;3829;50.798;4.358;2022-08-19T16:00:29;28.40;99.90
7576;DHT22;3829;50.798;4.358;2022-08-19T16:03:13;28.70;99.90
7576;DHT22;3829;50.798;4.358;2022-08-19T16:05:58;29.30;99.90
7576;DHT22;3829;50.798;4.358;2022-08-19T16:08:43;29.80;99.90
7576;DHT22;3829;50.798;4.358;2022-08-19T16:11:12;29.50;99.90
7576;DHT22;3829;50.798;4.358;2022-08-19T16:13:38;28.70;99.90
7576;DHT22;3829;50.798;4.358;2022-08-19T16:16:05;28.20;99.90
7576;DHT22;3829;50.798;4.358;2022-08-19T16:18:31;27.50;99.90